Time;durP1;ratioP1;P1;durP2;ratioP2;P2;SDS_P1;SDS_P2;PMS_P1;PMS_P2;Temp;Humidity;BMP_temperature;BMP_pressure;BME280_temperature;BME280_humidity;BME280_pressure;Samples;Min_cycle;Max_cycle;Signal;HPM_P1;HPM_P2
2022/03/20 00:00:38;;;;;;;10.98;6.40;;;;;;;3.43;40.72;102989.41;5073109;28;20028;-75
2022/03/20 00:03:09;;;;;;;10.68;5.70;;;;;;;3.47;40.39;102988.47;5091611;28;20460;-75
2022/03/20 00:05:38;;;;;;;12.73;5.95;;;;;;;3.43;39.82;102984.97;5077922;28;20048;-74
2022/03/20 00:08:13;;;;;;;24.75;7.60;;;;;;;3.34;40.09;102979.78;5092926;28;20397;-75
2022/03/20 00:10:44;;;;;;;18.27;7.07;;;;;;;3.33;40.17;102990.44;5093216;28;20032;-75
2022/03/20 00:13:11;;;;;;;15.10;7.18;;;;;;;3.35;40.06;102988.63;5096359;28;20055;-75
2022/03/20 00:15:40;;;;;;;10.80;5.80;;;;;;;3.32;39.97;102980.69;5087317;28;20027;-75
2022/03/20 00:18:15;;;;;;;14.15;6.70;;;;;;;3.18;39.83;102986.22;5110097;28;20114;-75
2022/03/20 00:20:44;;;;;;;15.10;6.03;;;;;;;3.23;40.20;102989.69;5089708;28;20032;-75
2022/03/20 00:23:12;;;;;;;11.93;6.05;;;;;;;3.26;40.44;102984.31;5092368;28;20032;-75
2022/03/20 00:25:38;;;;;;;20.63;7.28;;;;;;;3.31;39.70;102990.44;5111215;28;20024;-74
2022/03/20 00:28:05;;;;;;;15.65;6.93;;;;;;;3.30;39.75;102986.06;5114855;28;20492;-76
2022/03/20 00:30:32;;;;;;;17.00;6.43;;;;;;;3.31;39.77;102987.78;5082376;28;20028;-74
2022/03/20 00:32:57;;;;;;;11.85;7.10;;;;;;;3.28;39.96;102972.75;5094726;28;20511;-74
2022/03/20 00:35:24;;;;;;;18.95;6.82;;;;;;;3.17;39.43;102993.31;5095542;28;20028;-74
2022/03/20 00:37:49;;;;;;;12.10;6.97;;;;;;;3.16;39.61;102978.25;5074562;28;20036;-76
2022/03/20 00:40:15;;;;;;;16.50;6.60;;;;;;;3.08;39.89;102968.63;5094801;28;20115;-75
2022/03/20 00:42:40;;;;;;;13.30;6.00;;;;;;;3.03;40.07;102973.97;5076281;28;20044;-76
2022/03/20 00:45:06;;;;;;;15.57;6.03;;;;;;;2.93;40.15;102980.34;5076623;28;20127;-75
2022/03/20 00:47:32;;;;;;;9.60;5.65;;;;;;;2.82;40.83;102973.38;5075990;28;20089;-76
2022/03/20 00:49:58;;;;;;;12.90;6.15;;;;;;;2.79;40.71;102976.94;5098986;28;20028;-74
2022/03/20 00:52:23;;;;;;;10.32;4.85;;;;;;;2.78;40.82;102984.94;5113441;28;20028;-76
2022/03/20 00:54:49;;;;;;;9.35;5.38;;;;;;;2.71;40.60;102979.69;5096574;28;20101;-75
2022/03/20 00:57:14;;;;;;;13.75;6.47;;;;;;;2.70;40.61;102987.69;5096518;28;20088;-74
2022/03/20 00:59:41;;;;;;;9.90;5.93;;;;;;;2.60;40.92;102978.06;5113814;28;20038;-75
2022/03/20 01:02:08;;;;;;;13.25;5.97;;;;;;;2.54;40.98;102986.06;5096313;28;20573;-74
2022/03/20 01:04:35;;;;;;;13.65;6.63;;;;;;;2.56;41.12;102979.00;5079375;28;20074;-74
2022/03/20 01:07:02;;;;;;;17.45;6.70;;;;;;;2.51;41.03;102978.13;5095140;28;20092;-74
2022/03/20 01:09:28;;;;;;;14.85;5.82;;;;;;;2.49;41.24;102972.84;5076363;28;20070;-74
2022/03/20 01:11:56;;;;;;;10.05;5.90;;;;;;;2.45;41.46;102975.53;5076027;28;20032;-74
2022/03/20 01:14:23;;;;;;;12.50;5.95;;;;;;;2.40;41.43;102966.75;5068037;28;20036;-75
2022/03/20 01:16:48;;;;;;;12.18;6.80;;;;;;;2.38;41.52;102976.53;5080274;28;20024;-75
2022/03/20 01:19:15;;;;;;;14.00;7.53;;;;;;;2.37;41.51;102972.09;5107538;28;20042;-74
2022/03/20 01:21:41;;;;;;;18.80;8.05;;;;;;;2.31;41.66;102977.47;5087271;28;20031;-74
2022/03/20 01:24:08;;;;;;;11.80;6.65;;;;;;;2.25;41.73;102980.19;5095094;28;20034;-74
2022/03/20 01:26:35;;;;;;;9.25;5.82;;;;;;;2.26;41.65;102974.00;5114053;28;20027;-74
2022/03/20 01:29:02;;;;;;;17.42;6.40;;;;;;;2.26;41.70;102964.25;5095715;28;20032;-75
2022/03/20 01:31:29;;;;;;;15.00;6.45;;;;;;;2.25;41.46;102977.53;5095898;28;20024;-74
2022/03/20 01:33:55;;;;;;;15.30;6.35;;;;;;;2.23;41.71;102966.94;5112582;28;20115;-75
2022/03/20 01:36:21;;;;;;;19.38;7.03;;;;;;;2.20;41.78;102956.34;5063549;28;20058;-75
2022/03/20 01:38:47;;;;;;;17.80;6.78;;;;;;;2.19;41.67;102966.09;5088594;28;20032;-74
2022/03/20 01:41:13;;;;;;;11.73;6.80;;;;;;;2.24;41.80;102966.03;5093595;28;20024;-74
2022/03/20 01:43:50;;;;;;;15.38;7.00;;;;;;;2.17;42.03;102959.91;5090107;28;20036;-74
2022/03/20 01:46:16;;;;;;;15.60;7.05;;;;;;;1.98;42.08;102957.44;5093718;28;20028;-76
2022/03/20 01:48:43;;;;;;;10.68;5.88;;;;;;;1.96;42.76;102957.44;5098699;28;20032;-75
2022/03/20 01:51:10;;;;;;;10.68;6.78;;;;;;;2.00;42.68;102956.53;5114096;28;20027;-76
2022/03/20 01:53:35;;;;;;;14.27;6.57;;;;;;;2.00;42.30;102948.56;5095569;28;20031;-75
2022/03/20 01:56:01;;;;;;;15.98;6.82;;;;;;;1.99;42.71;102964.47;5113556;28;20024;-74
2022/03/20 01:58:27;;;;;;;14.82;6.53;;;;;;;1.95;43.15;102958.34;5113034;28;20042;-74
2022/03/20 02:00:52;;;;;;;15.38;6.72;;;;;;;1.92;42.65;102950.41;5111765;28;20035;-74
2022/03/20 02:03:19;;;;;;;16.88;7.32;;;;;;;1.86;42.86;102958.44;5095098;28;20185;-75
2022/03/20 02:05:47;;;;;;;9.57;5.43;;;;;;;1.86;43.29;102962.84;5081858;28;20060;-74
2022/03/20 02:08:12;;;;;;;15.52;6.03;;;;;;;1.85;43.08;102963.72;5070441;28;20028;-74
2022/03/20 02:10:38;;;;;;;17.33;7.63;;;;;;;1.84;43.18;102954.88;5057907;28;20021;-75
2022/03/20 02:13:05;;;;;;;12.73;6.28;;;;;;;1.93;43.18;102961.88;5052807;28;20029;-74
2022/03/20 02:15:30;;;;;;;13.98;6.20;;;;;;;1.88;43.47;102961.94;5069584;28;20086;-75
2022/03/20 02:17:56;;;;;;;18.27;8.40;;;;;;;1.83;43.27;102957.56;5054912;28;20064;-74
2022/03/20 02:20:22;;;;;;;13.25;7.07;;;;;;;1.85;43.35;102963.72;5057863;28;20024;-75
2022/03/20 02:22:48;;;;;;;13.48;6.80;;;;;;;1.81;43.86;102970.84;5071329;28;20095;-75
2022/03/20 02:25:17;;;;;;;12.30;6.25;;;;;;;1.80;43.44;102971.75;5056951;28;20037;-74
2022/03/20 02:27:44;;;;;;;9.68;6.32;;;;;;;1.79;43.70;102971.75;5052564;28;20029;-75
2022/03/20 02:30:15;;;;;;;15.50;7.80;;;;;;;1.78;44.03;102967.31;5042819;28;20041;-75
2022/03/20 02:32:44;;;;;;;12.15;6.63;;;;;;;1.75;43.83;102976.19;5051507;28;20509;-74
2022/03/20 02:35:14;;;;;;;12.57;5.85;;;;;;;1.65;44.14;102980.66;5062812;28;20025;-74
2022/03/20 02:37:42;;;;;;;18.25;6.70;;;;;;;1.68;44.30;102978.91;5060745;28;20028;-74
2022/03/20 02:40:08;;;;;;;15.25;6.60;;;;;;;1.74;43.98;102984.16;5069070;28;20119;-74
2022/03/20 02:42:35;;;;;;;15.27;7.65;;;;;;;1.80;43.96;102985.00;5059414;28;20041;-74
2022/03/20 02:45:09;;;;;;;17.58;8.05;;;;;;;1.81;43.99;102992.06;5065558;28;20050;-74
2022/03/20 02:47:45;;;;;;;20.35;6.80;;;;;;;1.78;44.11;102986.78;5056671;28;20037;-74
2022/03/20 02:50:17;;;;;;;20.52;7.22;;;;;;;1.80;44.02;103003.59;5050179;28;20065;-74
2022/03/20 02:52:49;;;;;;;17.02;7.85;;;;;;;1.74;43.94;102995.66;5052503;28;20506;-74
2022/03/20 02:55:19;;;;;;;21.30;7.50;;;;;;;1.72;44.18;102996.53;5052347;28;20051;-76
2022/03/20 02:57:47;;;;;;;23.20;8.05;;;;;;;1.70;44.05;102988.63;5063550;28;20506;-74
2022/03/20 03:00:17;;;;;;;14.32;6.82;;;;;;;1.72;44.53;102986.81;5069904;28;20032;-73
2022/03/20 03:02:45;;;;;;;19.92;6.35;;;;;;;1.69;44.38;102986.84;5054720;28;20426;-74
2022/03/20 03:05:15;;;;;;;23.92;8.07;;;;;;;1.68;44.29;102989.53;5068558;28;20068;-75
2022/03/20 03:13:15;;;;;;;13.85;6.72;;;;;;;1.60;45.05;102992.22;5052088;28;20032;-74
2022/03/20 03:15:42;;;;;;;14.20;6.93;;;;;;;1.62;44.80;102993.94;5054108;28;20111;-74
2022/03/20 03:18:08;;;;;;;16.65;6.82;;;;;;;1.71;44.79;102987.72;5065994;28;20021;-74
2022/03/20 03:20:35;;;;;;;13.45;7.03;;;;;;;1.77;44.39;103000.94;5051706;28;20601;-74
2022/03/20 03:23:01;;;;;;;26.55;7.25;;;;;;;1.81;44.15;103002.66;5050895;28;20114;-74
2022/03/20 03:25:26;;;;;;;13.65;6.95;;;;;;;1.88;44.34;103000.84;5056930;28;20033;-74
2022/03/20 03:27:53;;;;;;;17.13;6.70;;;;;;;1.95;44.12;102995.50;5067672;28;20133;-74
2022/03/20 03:30:18;;;;;;;24.63;8.50;;;;;;;2.02;44.09;103010.47;5050331;28;20102;-74
2022/03/20 03:32:45;;;;;;;12.77;6.97;;;;;;;2.04;44.01;103011.34;5061194;28;20106;-74
2022/03/20 03:37:58;;;;;;;15.80;6.68;;;;;;;1.99;44.05;103007.84;5068615;28;20044;-74
2022/03/20 03:40:24;;;;;;;13.25;7.40;;;;;;;1.93;44.16;103012.31;5067414;28;20037;-74
2022/03/20 03:42:50;;;;;;;20.60;9.25;;;;;;;1.94;44.22;103016.72;5059321;28;20036;-74
2022/03/20 03:45:17;;;;;;;17.83;6.85;;;;;;;1.96;44.31;103013.16;5049896;28;20028;-74
2022/03/20 03:47:42;;;;;;;22.65;7.57;;;;;;;1.94;44.31;103011.41;5061161;28;20039;-75
2022/03/20 03:50:10;;;;;;;21.00;7.82;;;;;;;1.90;44.34;103026.47;5070072;28;20036;-74
2022/03/20 03:52:36;;;;;;;17.60;7.05;;;;;;;1.84;44.65;103004.41;5058805;28;20491;-74
2022/03/20 03:55:03;;;;;;;25.73;7.68;;;;;;;1.81;44.56;103002.66;5064075;28;20029;-74
2022/03/20 03:57:28;;;;;;;18.40;8.15;;;;;;;1.72;44.82;103008.03;5069193;28;20024;-74
2022/03/20 03:59:54;;;;;;;15.98;6.05;;;;;;;1.66;45.33;102997.47;5070938;28;20089;-75
2022/03/20 04:02:21;;;;;;;16.60;7.63;;;;;;;1.71;45.38;103003.66;5052725;28;20075;-75
2022/03/20 04:04:47;;;;;;;16.65;7.35;;;;;;;1.69;45.41;103002.75;5055176;28;20542;-75
2022/03/20 04:07:18;;;;;;;25.65;7.32;;;;;;;1.75;45.21;103012.44;5111656;28;20089;-75
2022/03/20 04:09:47;;;;;;;19.00;6.50;;;;;;;1.66;45.27;103005.44;5078035;28;20063;-75
2022/03/20 04:12:16;;;;;;;16.73;7.65;;;;;;;1.70;45.50;103008.94;5073170;28;20032;-75
2022/03/20 04:14:42;;;;;;;25.05;7.13;;;;;;;1.69;45.49;103012.47;5095402;28;20496;-75
2022/03/20 04:17:09;;;;;;;16.00;7.80;;;;;;;1.66;45.34;103018.69;5093487;28;20031;-75
2022/03/20 04:19:34;;;;;;;14.18;6.57;;;;;;;1.63;45.37;103009.00;5077960;28;20773;-74
2022/03/20 04:22:02;;;;;;;15.90;7.22;;;;;;;1.68;45.24;103016.94;5091521;28;20028;-74
2022/03/20 04:24:31;;;;;;;16.90;8.38;;;;;;;1.69;45.19;103007.19;5073111;28;20085;-74
2022/03/20 04:26:58;;;;;;;17.38;7.68;;;;;;;1.68;45.22;103005.44;5074416;28;20092;-74
2022/03/20 04:29:25;;;;;;;18.45;7.70;;;;;;;1.62;45.10;102996.59;5073741;28;20559;-74
2022/03/20 04:31:54;;;;;;;21.15;7.15;;;;;;;1.60;45.07;102998.41;5105862;28;20075;-75
2022/03/20 04:34:20;;;;;;;22.90;8.63;;;;;;;1.58;45.37;102989.59;5076034;28;20043;-74
2022/03/20 04:36:46;;;;;;;24.20;8.10;;;;;;;1.54;45.46;102989.59;5076528;28;20055;-74
2022/03/20 04:39:11;;;;;;;15.27;7.47;;;;;;;1.58;45.44;102991.34;5099835;28;20474;-74
2022/03/20 04:41:37;;;;;;;21.58;8.40;;;;;;;1.58;45.59;102996.66;5076132;28;20039;-74
2022/03/20 04:44:06;;;;;;;16.63;6.57;;;;;;;1.61;45.41;102999.28;5084491;28;20027;-74
2022/03/20 04:46:32;;;;;;;25.15;9.80;;;;;;;1.47;45.52;103001.13;5068628;28;20401;-74
2022/03/20 04:59:53;;;;;;;22.98;8.38;;;;;;;1.70;45.44;103015.13;5111594;28;20039;-77
2022/03/20 05:02:19;;;;;;;17.77;8.10;;;;;;;1.75;45.21;103013.31;5072466;28;20043;-78
2022/03/20 05:04:44;;;;;;;25.70;8.57;;;;;;;1.76;45.59;103008.91;5055774;28;20039;-76
2022/03/20 05:07:10;;;;;;;21.52;8.20;;;;;;;1.90;45.06;103015.88;5090998;28;20450;-76
2022/03/20 05:15:30;;;;;;;25.20;9.30;;;;;;;2.02;45.15;103017.53;5032075;28;20039;-75
2022/03/20 05:17:56;;;;;;;27.15;9.05;;;;;;;2.09;45.40;103024.56;5044737;28;20067;-74
2022/03/20 05:20:23;;;;;;;16.67;8.13;;;;;;;2.14;44.90;103028.09;5092745;28;20027;-75
2022/03/20 05:22:50;;;;;;;16.90;7.95;;;;;;;2.13;44.53;103026.31;5079506;28;20470;-76
2022/03/20 05:25:16;;;;;;;18.00;8.40;;;;;;;2.12;44.88;103020.13;5096118;28;20126;-75
2022/03/20 05:27:42;;;;;;;21.08;8.98;;;;;;;2.29;44.57;103016.44;5112936;28;20097;-75
2022/03/20 05:30:10;;;;;;;19.27;8.27;;;;;;;2.38;44.42;103022.56;5076647;28;20036;-76
2022/03/20 05:32:37;;;;;;;23.80;11.02;;;;;;;2.44;44.22;103014.53;5086459;28;20576;-76
2022/03/20 05:35:05;;;;;;;14.50;7.78;;;;;;;2.47;43.95;103003.88;5112762;28;20052;-76
2022/03/20 05:37:34;;;;;;;23.83;7.65;;;;;;;2.56;44.04;103010.88;5086650;28;20047;-76
2022/03/20 05:40:00;;;;;;;26.35;8.70;;;;;;;2.56;43.87;103011.75;5077417;28;20046;-76
2022/03/20 05:42:25;;;;;;;22.02;8.55;;;;;;;2.57;43.92;103009.94;5086881;28;20024;-75
2022/03/20 05:44:51;;;;;;;28.92;8.80;;;;;;;2.64;43.77;103015.19;5075487;28;20035;-75
2022/03/20 05:47:17;;;;;;;33.55;7.55;;;;;;;2.71;43.46;103010.69;5088054;28;20485;-76
2022/03/20 05:49:43;;;;;;;21.67;7.75;;;;;;;2.81;43.69;103015.03;5104772;28;20028;-77
2022/03/20 05:52:09;;;;;;;12.48;6.90;;;;;;;2.96;43.04;103021.94;5088527;28;20133;-75
2022/03/20 05:54:35;;;;;;;13.43;7.25;;;;;;;3.05;42.71;103021.84;5075215;28;20081;-76
2022/03/20 05:59:44;;;;;;;17.45;9.00;;;;;;;3.20;42.93;103022.53;5113635;28;20062;-77
2022/03/20 06:02:12;;;;;;;24.77;8.07;;;;;;;3.27;42.23;103024.19;5114793;27;20028;-77
2022/03/20 06:04:38;;;;;;;21.17;9.07;;;;;;;3.25;42.46;103027.75;5088624;28;20043;-77
2022/03/20 06:07:08;;;;;;;19.75;9.52;;;;;;;3.20;42.84;103022.53;5095116;28;20031;-76
2022/03/20 06:09:34;;;;;;;21.67;8.60;;;;;;;3.24;43.00;103042.84;5113589;28;20027;-77
2022/03/20 06:12:01;;;;;;;24.45;8.85;;;;;;;3.33;42.71;103027.69;5113459;28;20063;-76
2022/03/20 06:14:27;;;;;;;22.20;9.02;;;;;;;3.43;42.60;103040.81;5093902;28;20020;-76
2022/03/20 06:16:56;;;;;;;18.13;8.18;;;;;;;3.44;42.66;103028.41;5078147;28;20031;-77
2022/03/20 06:19:22;;;;;;;23.70;8.23;;;;;;;3.54;42.36;103033.59;5095301;28;20024;-76
2022/03/20 06:21:48;;;;;;;20.83;8.25;;;;;;;3.51;42.46;103030.09;5093646;28;20012;-78
2022/03/20 06:24:13;;;;;;;18.50;7.15;;;;;;;3.65;42.33;103042.28;5094942;28;20402;-77
2022/03/20 06:26:40;;;;;;;19.92;6.90;;;;;;;3.69;42.66;103037.81;5094623;28;20169;-77
2022/03/20 06:29:07;;;;;;;21.77;8.60;;;;;;;3.72;42.29;103049.31;5112554;28;20023;-76
2022/03/20 06:31:33;;;;;;;22.13;8.00;;;;;;;3.75;42.13;103032.41;5094890;28;20134;-76
2022/03/20 06:33:59;;;;;;;16.65;7.85;;;;;;;3.80;41.96;103036.75;5095357;28;20015;-80
2022/03/20 06:36:25;;;;;;;21.08;8.55;;;;;;;3.89;41.90;103057.03;5096125;28;20019;-77
2022/03/20 06:38:51;;;;;;;17.95;7.90;;;;;;;3.91;41.74;103041.91;5095233;28;20031;-75
2022/03/20 06:41:20;;;;;;;21.85;8.93;;;;;;;3.88;41.81;103036.66;5112710;28;20119;-77
2022/03/20 06:43:47;;;;;;;22.20;10.43;;;;;;;3.91;42.26;103033.94;5094468;28;20016;-75
2022/03/20 06:46:12;;;;;;;15.80;7.63;;;;;;;3.96;41.81;103029.41;5094638;28;20020;-78
2022/03/20 06:48:38;;;;;;;28.02;8.07;;;;;;;4.05;41.76;103041.69;5113026;28;20027;-75
2022/03/20 06:51:04;;;;;;;25.75;8.10;;;;;;;4.15;41.92;103033.53;5094562;28;20537;-76
2022/03/20 06:53:32;;;;;;;17.77;7.20;;;;;;;4.28;41.38;103029.75;5112762;28;20484;-78
2022/03/20 06:55:58;;;;;;;14.43;6.55;;;;;;;4.51;39.96;103039.13;5112511;28;20028;-77
2022/03/20 06:58:23;;;;;;;24.35;8.15;;;;;;;4.59;39.85;103040.75;5090826;28;20040;-77
2022/03/20 07:00:51;;;;;;;17.10;8.18;;;;;;;4.71;39.08;103034.34;5085069;28;20550;-77
2022/03/20 07:03:20;;;;;;;14.02;6.85;;;;;;;4.81;38.91;103034.13;5051715;28;20032;-76
2022/03/20 07:05:46;;;;;;;21.48;7.05;;;;;;;4.91;38.72;103042.81;5088421;28;20073;-76
2022/03/20 07:08:11;;;;;;;17.42;7.93;;;;;;;5.00;38.30;103039.97;5092254;28;20031;-76
2022/03/20 07:10:38;;;;;;;23.65;6.07;;;;;;;5.09;37.75;103034.47;5092159;28;20012;-75
2022/03/20 07:15:52;;;;;;;23.63;6.53;;;;;;;5.22;35.21;103043.97;5092374;28;20027;-77
2022/03/20 07:18:19;;;;;;;12.50;6.22;;;;;;;5.22;34.50;103038.63;5073827;28;20027;-77
2022/03/20 07:20:47;;;;;;;24.85;7.03;;;;;;;5.31;34.10;103027.78;5074037;28;20034;-76
2022/03/20 07:23:13;;;;;;;15.70;6.00;;;;;;;5.41;33.84;103018.63;5092172;28;20029;-76
2022/03/20 07:31:09;;;;;;;19.95;6.07;;;;;;;5.87;32.84;103023.00;5076751;28;20109;-78
2022/03/20 07:33:35;;;;;;;25.67;6.63;;;;;;;5.95;31.73;103042.38;5092025;28;20024;-76
2022/03/20 07:36:01;;;;;;;9.93;5.18;;;;;;;5.95;30.95;103026.34;5056309;28;20020;-78
2022/03/20 07:38:28;;;;;;;21.33;5.75;;;;;;;6.04;31.07;103031.47;5091405;28;20527;-76
2022/03/20 07:40:54;;;;;;;14.95;5.72;;;;;;;6.09;30.23;103017.97;5091348;28;20405;-76
2022/03/20 07:43:19;;;;;;;18.90;5.50;;;;;;;6.04;29.59;103020.78;5073131;28;20028;-77
2022/03/20 07:45:45;;;;;;;15.02;5.95;;;;;;;6.11;29.65;103027.75;5091459;28;20031;-77
2022/03/20 07:48:11;;;;;;;13.13;5.65;;;;;;;6.18;29.32;103029.31;5091687;28;20031;-77
2022/03/20 07:50:38;;;;;;;39.55;13.93;;;;;;;6.28;29.79;103025.50;5073089;28;20024;-77
2022/03/20 07:53:05;;;;;;;14.48;5.55;;;;;;;6.42;28.91;103038.53;5073925;28;20055;-77
2022/03/20 07:55:30;;;;;;;25.67;7.53;;;;;;;6.44;28.09;103021.53;5073367;28;20028;-76
2022/03/20 07:57:56;;;;;;;13.65;5.22;;;;;;;6.45;28.33;103012.56;5073418;28;20554;-75
2022/03/20 08:00:22;;;;;;;13.75;5.57;;;;;;;6.56;28.42;103013.19;5091316;28;20537;-77
2022/03/20 08:02:51;;;;;;;18.42;6.82;;;;;;;6.45;27.82;103015.25;5091073;28;20115;-77
2022/03/20 08:05:17;;;;;;;31.42;6.55;;;;;;;6.52;28.32;103010.63;5056085;28;20044;-76
2022/03/20 08:07:43;;;;;;;12.32;5.57;;;;;;;6.51;27.86;103012.41;5072733;28;20055;-76
2022/03/20 08:10:10;;;;;;;11.05;6.22;;;;;;;6.50;27.82;102994.63;5073050;28;20028;-75
2022/03/20 08:12:36;;;;;;;9.88;5.85;;;;;;;6.62;28.03;103011.25;5072306;28;20027;-75
2022/03/20 08:15:04;;;;;;;10.35;5.75;;;;;;;6.58;27.91;103019.34;5072681;28;20024;-75
2022/03/20 08:17:32;;;;;;;19.00;6.47;;;;;;;6.69;28.57;103004.84;5091208;28;20024;-77
2022/03/20 08:19:58;;;;;;;20.80;7.45;;;;;;;6.77;28.33;103009.03;5073442;28;20114;-76
2022/03/20 08:22:27;;;;;;;15.25;5.97;;;;;;;6.81;28.05;103004.50;5072993;28;20066;-75
2022/03/20 08:24:52;;;;;;;14.98;7.10;;;;;;;6.83;28.40;103002.63;5056386;28;20032;-75
2022/03/20 08:27:20;;;;;;;13.63;7.00;;;;;;;6.88;28.38;103006.09;5090919;28;20398;-74
2022/03/20 08:29:46;;;;;;;13.70;5.97;;;;;;;6.82;27.88;103023.16;5090803;28;20028;-75
2022/03/20 08:32:12;;;;;;;10.20;4.93;;;;;;;6.84;27.90;103007.09;5072685;28;20101;-76
2022/03/20 08:34:40;;;;;;;12.45;7.00;;;;;;;6.88;27.76;102998.06;5072440;28;20482;-75
2022/03/20 08:37:05;;;;;;;22.33;6.05;;;;;;;7.04;27.86;103008.25;5056152;28;20036;-78
2022/03/20 08:39:31;;;;;;;12.35;5.30;;;;;;;7.24;27.50;103005.03;5072338;28;20402;-77
2022/03/20 08:41:56;;;;;;;24.60;5.72;;;;;;;7.33;26.97;103020.81;5072258;28;20103;-75
2022/03/20 08:44:25;;;;;;;8.98;4.97;;;;;;;7.35;26.93;103018.06;5072581;28;20027;-75
2022/03/20 08:46:52;;;;;;;10.70;4.90;;;;;;;7.42;26.05;103011.63;5090583;28;20452;-76
2022/03/20 08:49:20;;;;;;;15.80;5.95;;;;;;;7.40;25.43;103018.84;5075951;28;20465;-77
2022/03/20 08:51:45;;;;;;;10.93;5.32;;;;;;;7.41;25.71;103026.78;5043554;28;20042;-75
2022/03/20 08:54:12;;;;;;;17.17;6.22;;;;;;;7.46;25.68;103026.69;5076518;28;20040;-76
2022/03/20 08:56:38;;;;;;;13.10;5.53;;;;;;;7.53;25.61;103025.53;5075947;28;20089;-76
2022/03/20 08:59:09;;;;;;;10.48;4.82;;;;;;;7.53;25.39;103023.75;5043130;28;20409;-76
2022/03/20 09:01:35;;;;;;;13.20;5.57;;;;;;;7.53;26.23;103031.78;5076387;28;20032;-77
2022/03/20 09:04:01;;;;;;;14.85;5.68;;;;;;;7.57;25.99;103012.03;5060037;28;20055;-77
2022/03/20 09:06:27;;;;;;;12.63;5.30;;;;;;;7.76;26.13;103015.00;5094238;28;20131;-75
2022/03/20 09:08:53;;;;;;;28.85;6.85;;;;;;;7.62;25.96;103007.41;5076307;28;20177;-76
2022/03/20 09:11:21;;;;;;;31.02;11.65;;;;;;;7.65;26.04;103007.28;5076067;28;20023;-75
2022/03/20 09:13:47;;;;;;;23.40;5.95;;;;;;;7.70;26.27;103008.97;5075948;28;20028;-76
2022/03/20 09:19:07;;;;;;;13.82;5.90;;;;;;;7.97;26.73;102994.69;5079056;28;20096;-75
2022/03/20 09:21:36;;;;;;;10.50;5.53;;;;;;;7.99;25.63;102992.81;5076795;28;20503;-75
2022/03/20 09:24:03;;;;;;;9.75;5.00;;;;;;;7.97;26.13;102975.91;5094008;28;20021;-77
2022/03/20 09:26:29;;;;;;;16.80;5.35;;;;;;;8.00;25.69;102975.81;5075660;28;20028;-76
2022/03/20 09:28:57;;;;;;;16.00;5.80;;;;;;;8.15;24.44;102994.06;5093644;28;20089;-77
2022/03/20 09:31:24;;;;;;;9.80;5.53;;;;;;;8.10;24.20;102988.00;5060305;28;20043;-75
2022/03/20 09:33:51;;;;;;;11.80;4.47;;;;;;;8.10;22.72;102971.91;5094257;28;20410;-75
2022/03/20 09:36:16;;;;;;;17.83;4.30;;;;;;;8.18;23.47;102978.75;5076101;28;20028;-76
2022/03/20 09:38:42;;;;;;;12.18;4.88;;;;;;;8.28;23.06;102963.28;5075664;28;20038;-76
2022/03/20 09:41:09;;;;;;;15.90;5.15;;;;;;;8.22;23.69;102974.19;5058732;28;20551;-76
2022/03/20 09:43:37;;;;;;;19.17;4.88;;;;;;;8.21;23.63;102980.47;5093310;28;20408;-75
2022/03/20 09:46:03;;;;;;;25.05;11.20;;;;;;;8.15;22.10;102980.66;5075134;28;20032;-76
2022/03/20 09:48:30;;;;;;;19.00;5.05;;;;;;;8.17;22.08;102973.44;5058425;28;20130;-77
2022/03/20 09:51:00;;;;;;;11.32;4.28;;;;;;;8.13;22.74;102966.44;5075161;28;20032;-77
2022/03/20 09:53:27;;;;;;;11.98;4.55;;;;;;;8.31;22.49;102984.63;5093170;28;20063;-75
2022/03/20 09:55:56;;;;;;;32.20;5.05;;;;;;;8.22;22.42;102977.72;5093258;28;20495;-77
2022/03/20 09:58:27;;;;;;;36.17;5.05;;;;;;;8.22;22.79;102960.78;5074895;28;20048;-78
2022/03/20 10:00:54;;;;;;;9.20;3.90;;;;;;;8.35;22.59;102972.84;5093458;28;20027;-77
2022/03/20 10:03:22;;;;;;;15.52;4.90;;;;;;;8.37;21.71;102959.41;5092938;28;20270;-76
2022/03/20 10:06:16;;;;;;;12.35;6.20;;;;;;;8.49;22.71;102959.84;5093245;28;20048;-76
2022/03/20 10:08:56;;;;;;;6.10;3.65;;;;;;;8.65;22.13;102969.06;5093212;28;20039;-75
2022/03/20 10:11:23;;;;;;;11.23;4.80;;;;;;;8.65;22.03;102961.03;5074869;28;20110;-76
2022/03/20 10:14:09;;;;;;;10.77;4.38;;;;;;;8.75;21.58;102970.50;5093216;28;20028;-76
2022/03/20 10:16:38;;;;;;;32.83;4.97;;;;;;;8.70;21.02;102968.91;5074382;28;20047;-77
2022/03/20 10:19:22;;;;;;;13.07;4.75;;;;;;;8.90;21.08;102976.25;5074437;28;20039;-76
2022/03/20 10:22:09;;;;;;;9.40;3.80;;;;;;;8.84;20.82;102963.91;5092930;28;20538;-76
2022/03/20 10:24:39;;;;;;;15.40;4.07;;;;;;;9.02;21.67;102971.28;5088466;28;20028;-76
2022/03/20 10:27:10;;;;;;;17.90;5.05;;;;;;;8.98;21.52;102966.09;5092568;28;20103;-77
2022/03/20 10:29:46;;;;;;;14.65;4.85;;;;;;;9.03;21.95;102956.03;5074497;28;20026;-75
2022/03/20 10:32:12;;;;;;;12.50;4.28;;;;;;;9.09;21.48;102940.59;5092660;28;20048;-76
2022/03/20 10:34:55;;;;;;;12.93;4.07;;;;;;;9.32;21.58;102934.34;5074604;28;20063;-77
2022/03/20 10:37:44;;;;;;;13.45;5.97;;;;;;;9.60;22.20;102943.00;5093491;28;20039;-75
2022/03/20 10:40:12;;;;;;;10.32;4.50;;;;;;;9.71;20.76;102946.16;5094906;28;20121;-77
2022/03/20 10:42:38;;;;;;;15.32;4.15;;;;;;;9.64;20.77;102941.97;5074182;28;20051;-76
2022/03/20 10:45:08;;;;;;;16.83;4.38;;;;;;;9.49;21.07;102944.41;5074286;28;20401;-76
2022/03/20 10:47:34;;;;;;;7.03;3.88;;;;;;;9.40;21.08;102934.00;5092477;28;20038;-75
2022/03/20 10:50:09;;;;;;;15.07;4.90;;;;;;;9.34;21.28;102945.00;5073992;28;20406;-76
2022/03/20 10:52:36;;;;;;;13.93;4.40;;;;;;;9.38;22.27;102947.53;5092291;28;20512;-75
2022/03/20 10:55:15;;;;;;;17.20;4.47;;;;;;;9.41;22.61;102930.41;5057868;28;20032;-76
2022/03/20 10:57:43;;;;;;;14.30;5.03;;;;;;;9.41;22.85;102925.91;5073970;28;20504;-76
2022/03/20 11:00:14;;;;;;;13.10;4.97;;;;;;;9.47;22.67;102917.59;5073942;28;20042;-76
2022/03/20 11:02:40;;;;;;;9.98;4.15;;;;;;;9.59;23.10;102933.22;5073681;28;20027;-76
2022/03/20 11:05:08;;;;;;;9.25;5.13;;;;;;;9.76;23.64;102925.34;5056759;28;20058;-76
2022/03/20 11:07:35;;;;;;;8.93;3.63;;;;;;;9.92;23.65;102919.31;5073726;28;20032;-77
2022/03/20 11:10:02;;;;;;;23.95;4.65;;;;;;;10.04;23.46;102926.88;5072758;28;20036;-76
2022/03/20 11:12:33;;;;;;;25.08;4.50;;;;;;;10.07;23.56;102926.72;5091859;28;20032;-77
2022/03/20 11:15:09;;;;;;;17.42;4.85;;;;;;;10.13;23.57;102921.09;5073515;28;20502;-77
2022/03/20 11:17:45;;;;;;;19.30;5.10;;;;;;;10.17;24.52;102918.25;5086820;28;20028;-77
2022/03/20 11:20:14;;;;;;;18.42;4.25;;;;;;;10.09;23.64;102906.06;5073323;28;20024;-76
2022/03/20 11:22:46;;;;;;;7.13;3.42;;;;;;;10.25;23.37;102916.09;5091619;28;20089;-76
2022/03/20 11:25:14;;;;;;;13.85;4.80;;;;;;;9.96;23.54;102921.84;5069244;28;20081;-76
2022/03/20 11:27:49;;;;;;;18.73;4.80;;;;;;;9.78;23.55;102915.38;5073063;28;20040;-76
2022/03/20 11:30:15;;;;;;;20.17;6.82;;;;;;;9.66;23.99;102915.91;5058112;28;20144;-76
2022/03/20 11:32:43;;;;;;;9.52;4.90;;;;;;;9.68;24.11;102903.28;5057498;28;20501;-76
2022/03/20 11:35:09;;;;;;;10.35;5.00;;;;;;;9.70;24.13;102917.53;5073157;28;20036;-76
2022/03/20 11:37:46;;;;;;;12.23;4.68;;;;;;;9.70;24.59;102906.78;5073675;28;20032;-77
2022/03/20 11:40:20;;;;;;;15.27;5.85;;;;;;;9.78;24.78;102910.00;5073311;28;20035;-76
2022/03/20 11:42:48;;;;;;;13.60;4.88;;;;;;;9.87;25.07;102918.66;5092895;28;20084;-77
2022/03/20 11:45:20;;;;;;;13.80;4.72;;;;;;;9.88;25.07;102920.41;5056859;28;20036;-77
2022/03/20 11:47:51;;;;;;;16.63;6.43;;;;;;;9.84;25.54;102915.16;5091018;28;20137;-77
2022/03/20 11:50:27;;;;;;;12.52;5.43;;;;;;;10.11;25.70;102917.59;5073249;28;20562;-77
2022/03/20 11:53:04;;;;;;;14.70;6.45;;;;;;;10.05;25.71;102917.88;5073896;28;20039;-76
2022/03/20 11:55:53;;;;;;;17.80;5.68;;;;;;;9.62;25.87;102919.66;5073220;28;20020;-76
2022/03/20 11:58:20;;;;;;;19.05;5.40;;;;;;;9.70;25.92;102914.84;5073346;28;20111;-77
2022/03/20 12:01:09;;;;;;;9.73;5.85;;;;;;;9.87;26.06;102913.28;5073820;28;20027;-77
2022/03/20 12:04:04;;;;;;;16.23;7.07;;;;;;;9.70;26.02;102901.41;5078020;28;20032;-76
2022/03/20 12:06:42;;;;;;;14.30;5.63;;;;;;;9.74;26.28;102897.66;5074541;28;20105;-78